Time;durP1;ratioP1;P1;durP2;ratioP2;P2;SDS_P1;SDS_P2;PMS_P1;PMS_P2;Temp;Humidity;BMP_temperature;BMP_pressure;BME280_temperature;BME280_humidity;BME280_pressure;Samples;Min_cycle;Max_cycle;Signal;HPM_P1;HPM_P2
2023/12/31 00:01:51;;;;;;;3.55;0.98;;;;;;;12.95;60.60;100430.31;4950223;28;124299;-76
2023/12/31 00:04:19;;;;;;;1.67;0.88;;;;;;;12.96;60.42;100432.03;4940988;28;107281;-76
2023/12/31 00:06:46;;;;;;;2.50;0.75;;;;;;;12.96;60.46;100421.41;4940715;28;106207;-76
2023/12/31 00:09:14;;;;;;;1.83;0.82;;;;;;;12.96;60.41;100416.09;4954185;28;124550;-76
2023/12/31 00:11:41;;;;;;;2.10;0.80;;;;;;;12.96;60.34;100405.44;4954366;28;124156;-75
2023/12/31 00:14:09;;;;;;;3.50;0.70;;;;;;;12.95;60.19;100414.34;4956558;28;108056;-75
2023/12/31 00:16:36;;;;;;;2.90;0.80;;;;;;;12.95;60.18;100403.72;4966560;28;107066;-75
2023/12/31 00:19:03;;;;;;;1.35;0.70;;;;;;;12.94;60.24;100396.72;4943919;28;124706;-75
2023/12/31 00:21:33;;;;;;;2.05;0.80;;;;;;;12.96;60.18;100384.19;4947533;28;124030;-75
2023/12/31 00:24:00;;;;;;;2.55;0.75;;;;;;;12.97;60.25;100385.88;4956889;28;108043;-75
2023/12/31 00:26:27;;;;;;;2.33;0.80;;;;;;;12.97;60.27;100385.88;4949783;28;107527;-75
2023/12/31 00:29:03;;;;;;;5.78;0.98;;;;;;;12.99;60.26;100370.69;4947363;28;124217;-74
2023/12/31 00:31:31;;;;;;;1.42;0.70;;;;;;;13.01;60.35;100365.28;4948691;28;124184;-74
2023/12/31 00:33:58;;;;;;;2.22;0.80;;;;;;;13.04;60.05;100357.13;4953273;28;107068;-74
2023/12/31 00:36:28;;;;;;;2.17;0.80;;;;;;;13.04;60.05;100344.66;4945663;28;106210;-74
2023/12/31 00:38:55;;;;;;;3.22;0.90;;;;;;;13.05;60.04;100351.72;4951101;28;124323;-75
2023/12/31 00:41:25;;;;;;;2.50;0.80;;;;;;;13.04;59.76;100347.31;4953416;28;123472;-75
2023/12/31 00:43:52;;;;;;;2.15;0.70;;;;;;;13.05;59.82;100330.44;4946356;28;107673;-72
2023/12/31 00:46:19;;;;;;;2.78;0.90;;;;;;;13.05;59.79;100324.25;4946018;28;107432;-73
2023/12/31 00:48:47;;;;;;;2.28;0.80;;;;;;;13.04;59.59;100312.75;4953345;28;123158;-72
2023/12/31 00:51:15;;;;;;;1.88;0.80;;;;;;;13.04;59.56;100318.09;4954756;28;122893;-73
2023/12/31 00:53:42;;;;;;;1.38;0.88;;;;;;;13.03;59.53;100311.06;4954154;28;106692;-73
2023/12/31 00:56:10;;;;;;;2.15;0.80;;;;;;;13.02;59.60;100309.34;4940903;28;107763;-75
2023/12/31 00:58:37;;;;;;;2.42;0.90;;;;;;;13.03;59.29;100315.50;4945689;28;123858;-75
2023/12/31 01:01:04;;;;;;;2.58;0.90;;;;;;;13.03;59.49;100304.88;4942179;28;123626;-73
2023/12/31 01:03:33;;;;;;;1.08;0.80;;;;;;;13.01;59.34;100297.00;4959650;28;106583;-74
2023/12/31 01:06:07;;;;;;;2.63;0.90;;;;;;;13.02;59.19;100296.06;4956555;28;107186;-73
2023/12/31 01:08:34;;;;;;;3.03;0.90;;;;;;;13.01;59.20;100281.06;4944638;28;123736;-74
2023/12/31 01:11:02;;;;;;;1.63;0.80;;;;;;;13.00;59.17;100271.38;4939949;28;124794;-74
2023/12/31 01:13:30;;;;;;;1.70;0.90;;;;;;;12.99;59.09;100266.16;4944156;28;107229;-73
2023/12/31 01:15:57;;;;;;;1.20;0.80;;;;;;;12.99;59.05;100267.00;4953241;28;106661;-74
2023/12/31 01:18:25;;;;;;;2.95;0.90;;;;;;;12.99;59.05;100261.69;4963830;28;124374;-74
2023/12/31 01:20:52;;;;;;;2.00;0.90;;;;;;;12.99;58.87;100251.06;4942175;28;123973;-74
2023/12/31 01:23:20;;;;;;;1.85;0.90;;;;;;;12.97;58.87;100247.66;4934791;28;109643;-74
2023/12/31 01:25:48;;;;;;;1.67;0.90;;;;;;;12.97;58.84;100234.34;4952030;28;108822;-73
2023/12/31 01:28:15;;;;;;;3.50;0.90;;;;;;;12.97;58.79;100233.50;4949446;28;124793;-74
2023/12/31 01:30:44;;;;;;;1.65;0.90;;;;;;;12.96;58.75;100237.09;4954173;28;123082;-74
2023/12/31 01:33:11;;;;;;;1.60;1.00;;;;;;;12.94;58.87;100226.59;4947103;28;110122;-74
2023/12/31 01:35:38;;;;;;;2.47;1.05;;;;;;;12.93;58.76;100224.88;4939682;28;109879;-74
2023/12/31 01:38:06;;;;;;;1.45;0.90;;;;;;;12.92;58.82;100223.19;4953065;28;123015;-74
2023/12/31 01:40:33;;;;;;;3.33;1.15;;;;;;;12.91;58.56;100224.13;4953175;28;123013;-74
2023/12/31 01:43:02;;;;;;;3.83;0.90;;;;;;;12.89;58.72;100215.41;4951188;28;109537;-74
2023/12/31 01:45:30;;;;;;;1.77;0.82;;;;;;;12.89;58.66;100220.72;4939395;28;108056;-74
2023/12/31 01:47:59;;;;;;;3.17;1.00;;;;;;;12.87;58.56;100214.66;4939220;28;124131;-73
2023/12/31 01:50:26;;;;;;;2.85;1.00;;;;;;;12.85;58.63;100211.25;4954082;28;124243;-73
2023/12/31 01:52:55;;;;;;;3.40;1.23;;;;;;;12.84;58.69;100209.53;4948060;28;109565;-74
2023/12/31 01:55:23;;;;;;;3.50;1.02;;;;;;;12.81;58.62;100204.44;4948260;28;107787;-75
2023/12/31 01:57:51;;;;;;;2.45;1.15;;;;;;;12.81;58.68;100204.44;4951156;28;124914;-75
2023/12/31 02:00:19;;;;;;;1.60;1.00;;;;;;;12.81;58.63;100209.75;4950914;28;126429;-75
2023/12/31 02:02:48;;;;;;;1.70;1.00;;;;;;;12.81;58.72;100193.81;4954869;28;108170;-75
2023/12/31 02:05:16;;;;;;;1.40;0.90;;;;;;;12.78;58.65;100188.69;4938943;28;108134;-75
2023/12/31 02:07:43;;;;;;;1.88;0.93;;;;;;;12.76;58.61;100180.78;4948839;28;124137;-75
2023/12/31 02:10:14;;;;;;;3.88;0.90;;;;;;;12.75;58.60;100172.91;4938161;28;122827;-75
2023/12/31 02:12:42;;;;;;;1.65;1.00;;;;;;;12.75;58.73;100178.22;4940806;28;108916;-76
2023/12/31 02:15:09;;;;;;;2.28;1.10;;;;;;;12.72;58.71;100167.81;4945260;28;109600;-76
2023/12/31 02:17:36;;;;;;;3.08;1.08;;;;;;;12.70;58.65;100164.41;4951672;28;124199;-75
2023/12/31 02:20:08;;;;;;;2.38;1.00;;;;;;;12.68;58.61;100159.19;4951124;28;124250;-75
2023/12/31 02:22:35;;;;;;;2.28;1.10;;;;;;;12.65;58.71;100146.94;4950712;28;109154;-76
2023/12/31 02:25:05;;;;;;;2.63;1.10;;;;;;;12.64;58.61;100155.88;4956949;28;109528;-76
2023/12/31 02:27:33;;;;;;;2.22;1.10;;;;;;;12.61;58.77;100140.13;4950247;28;123595;-76
2023/12/31 02:30:01;;;;;;;3.92;1.48;;;;;;;12.62;58.59;100141.84;4957484;28;122804;-76
2023/12/31 02:32:28;;;;;;;3.47;1.30;;;;;;;12.60;58.72;100133.13;4953290;28;108551;-76
2023/12/31 02:35:00;;;;;;;1.92;1.10;;;;;;;12.60;58.70;100127.81;4942762;28;109060;-76
2023/12/31 02:37:28;;;;;;;3.67;1.45;;;;;;;12.59;58.57;100126.09;4942656;28;123764;-76
2023/12/31 02:39:57;;;;;;;2.70;1.38;;;;;;;12.58;58.69;100124.41;4953225;28;123773;-75
2023/12/31 02:42:24;;;;;;;2.72;1.17;;;;;;;12.59;58.65;100120.78;4941451;28;109576;-75
2023/12/31 02:44:53;;;;;;;3.22;1.30;;;;;;;12.58;58.57;100105.81;4955288;28;108223;-75
2023/12/31 02:47:20;;;;;;;2.53;1.30;;;;;;;12.57;58.55;100096.13;4936551;28;123410;-74
2023/12/31 02:49:48;;;;;;;3.08;1.25;;;;;;;12.57;58.48;100100.59;4954456;28;123160;-76
2023/12/31 02:52:16;;;;;;;4.00;1.27;;;;;;;12.56;58.41;100083.78;4971248;28;107602;-75
2023/12/31 02:54:45;;;;;;;2.55;1.20;;;;;;;12.54;58.34;100085.69;4946988;28;109312;-75
2023/12/31 02:57:13;;;;;;;3.97;1.23;;;;;;;12.55;58.39;100081.25;4961426;28;123600;-75
2023/12/31 02:59:41;;;;;;;1.85;1.00;;;;;;;12.55;58.35;100076.78;4940680;28;124689;-75
2023/12/31 03:02:08;;;;;;;4.35;1.40;;;;;;;12.53;58.34;100062.75;4952168;28;108176;-75
2023/12/31 03:04:42;;;;;;;1.83;1.05;;;;;;;12.52;58.28;100061.03;4956853;28;108224;-75
2023/12/31 03:07:09;;;;;;;2.58;1.40;;;;;;;12.54;58.27;100050.31;4945593;28;123863;-75
2023/12/31 03:09:42;;;;;;;2.78;1.20;;;;;;;12.52;58.17;100039.78;4943335;28;124265;-75
2023/12/31 03:12:09;;;;;;;2.50;1.15;;;;;;;12.54;58.19;100051.16;4954227;28;110086;-76
2023/12/31 03:14:36;;;;;;;2.80;1.10;;;;;;;12.53;58.04;100045.97;4938219;28;109872;-75
2023/12/31 03:17:03;;;;;;;3.45;1.10;;;;;;;12.52;58.22;100044.25;4948997;28;123607;-75
2023/12/31 03:19:35;;;;;;;2.55;0.80;;;;;;;12.52;58.05;100041.59;4950013;28;123108;-75
2023/12/31 03:22:03;;;;;;;2.42;1.02;;;;;;;12.51;58.10;100042.53;4954486;28;108497;-74
2023/12/31 03:24:31;;;;;;;3.58;1.30;;;;;;;12.50;58.01;100035.53;4942851;28;109126;-74
2023/12/31 03:26:58;;;;;;;1.95;1.10;;;;;;;12.50;57.94;100025.75;4947945;28;123503;-74
2023/12/31 03:29:26;;;;;;;3.60;1.00;;;;;;;12.49;57.94;100018.75;4944310;28;123646;-75
2023/12/31 03:31:53;;;;;;;2.55;1.10;;;;;;;12.48;58.04;100011.72;4944943;28;108816;-75
2023/12/31 03:34:24;;;;;;;2.15;1.10;;;;;;;12.48;57.90;100005.59;4945775;28;109242;-74
2023/12/31 03:36:51;;;;;;;2.08;1.10;;;;;;;12.47;57.87;99994.13;4946816;28;124303;-74
2023/12/31 03:39:20;;;;;;;3.40;1.20;;;;;;;12.46;57.82;99993.25;4940653;28;123097;-74
2023/12/31 03:41:48;;;;;;;2.85;1.30;;;;;;;12.46;57.85;99981.78;4939322;28;109102;-74
2023/12/31 03:44:15;;;;;;;1.88;1.10;;;;;;;12.45;57.88;99972.09;4940153;28;108896;-74
2023/12/31 03:46:44;;;;;;;3.25;1.23;;;;;;;12.43;57.87;99966.91;4953014;28;124477;-74
2023/12/31 03:49:11;;;;;;;2.00;1.05;;;;;;;12.43;57.65;99955.41;4939701;28;124279;-74
2023/12/31 03:51:39;;;;;;;1.70;1.20;;;;;;;12.42;57.62;99938.63;4947792;28;109303;-75
2023/12/31 03:54:08;;;;;;;3.28;0.98;;;;;;;12.41;57.74;99936.06;4952771;28;108731;-74
2023/12/31 03:56:35;;;;;;;2.17;1.10;;;;;;;12.41;57.66;99930.75;4949521;28;124398;-75
2023/12/31 03:59:03;;;;;;;1.95;1.05;;;;;;;12.40;57.67;99935.25;4952855;28;124415;-75
2023/12/31 04:01:30;;;;;;;2.53;1.30;;;;;;;12.40;57.73;99923.78;4950086;28;110356;-74
2023/12/31 04:03:58;;;;;;;5.63;1.33;;;;;;;12.41;57.69;99914.84;4938083;28;109804;-74
2023/12/31 04:06:25;;;;;;;3.88;1.17;;;;;;;12.41;57.67;99905.09;4939087;28;124407;-75
2023/12/31 04:08:57;;;;;;;2.42;1.10;;;;;;;12.40;57.52;99897.22;4954437;28;123896;-75
2023/12/31 04:11:24;;;;;;;2.22;1.20;;;;;;;12.40;57.48;99898.06;4944779;28;109712;-75
2023/12/31 04:13:54;;;;;;;1.60;1.00;;;;;;;12.40;57.52;99894.56;4952318;28;108009;-74
2023/12/31 04:16:22;;;;;;;2.25;1.10;;;;;;;12.39;57.63;99890.19;4935044;28;124066;-75
2023/12/31 04:18:50;;;;;;;2.40;1.13;;;;;;;12.39;57.61;99884.88;4940176;28;122503;-75
2023/12/31 04:21:17;;;;;;;2.63;1.20;;;;;;;12.40;57.44;99870.66;4942286;28;109160;-74
2023/12/31 04:23:45;;;;;;;3.13;1.38;;;;;;;12.40;57.20;99865.34;4957558;28;108787;-73
2023/12/31 04:26:14;;;;;;;2.20;1.17;;;;;;;12.41;57.38;99859.06;4944672;28;124983;-74
2023/12/31 04:28:41;;;;;;;3.70;1.30;;;;;;;12.40;57.46;99854.72;4945754;28;124345;-74
2023/12/31 04:31:08;;;;;;;3.60;1.08;;;;;;;12.40;57.57;99855.56;4943485;28;109124;-74
2023/12/31 04:33:36;;;;;;;3.67;1.23;;;;;;;12.39;57.37;99847.69;4941728;28;108707;-74
2023/12/31 04:36:07;;;;;;;2.90;1.30;;;;;;;12.40;57.26;99844.09;4954864;28;124391;-75
2023/12/31 04:38:39;;;;;;;1.52;1.10;;;;;;;12.40;57.34;99842.28;4952729;28;124217;-74
2023/12/31 04:41:08;;;;;;;2.30;1.10;;;;;;;12.41;57.41;99835.16;4947237;28;108420;-75
2023/12/31 04:43:36;;;;;;;2.47;1.25;;;;;;;12.41;57.46;99819.25;4962811;28;108183;-75
2023/12/31 04:46:04;;;;;;;2.42;1.20;;;;;;;12.43;57.41;99817.31;4955823;28;123618;-75
2023/12/31 04:48:32;;;;;;;2.45;1.13;;;;;;;12.42;57.37;99805.00;4934911;28;124308;-75
2023/12/31 04:50:59;;;;;;;2.28;1.00;;;;;;;12.42;57.24;99807.69;4941891;28;109972;-74
2023/12/31 04:53:26;;;;;;;2.15;1.23;;;;;;;12.42;57.34;99811.16;4949867;28;109233;-75
2023/12/31 04:55:54;;;;;;;2.00;1.20;;;;;;;12.44;57.36;99819.03;4946519;28;124609;-74
2023/12/31 04:58:23;;;;;;;2.80;1.60;;;;;;;12.44;57.43;99808.41;4933352;28;124619;-75
2023/12/31 05:00:51;;;;;;;3.38;2.30;;;;;;;12.44;57.30;99793.31;4944934;28;109105;-75
2023/12/31 05:03:18;;;;;;;5.45;2.50;;;;;;;12.44;57.31;99792.47;4954039;28;108911;-74
2023/12/31 05:05:45;;;;;;;3.58;2.10;;;;;;;12.44;57.16;99782.69;4952762;28;123419;-75
2023/12/31 05:08:13;;;;;;;3.72;2.00;;;;;;;12.44;57.27;99771.25;4941112;28;125208;-75
2023/12/31 05:10:40;;;;;;;3.83;1.70;;;;;;;12.44;57.40;99776.53;4952833;28;109047;-75
2023/12/31 05:13:09;;;;;;;3.75;1.33;;;;;;;12.45;57.38;99772.91;4950137;28;109095;-75
2023/12/31 05:15:37;;;;;;;4.00;1.50;;;;;;;12.46;57.41;99764.84;4948946;28;124677;-76
2023/12/31 05:18:04;;;;;;;2.38;1.38;;;;;;;12.48;57.27;99762.09;4946508;28;124343;-73
2023/12/31 05:20:32;;;;;;;5.50;1.52;;;;;;;12.48;57.36;99751.47;4948008;28;109684;-74
2023/12/31 05:22:59;;;;;;;3.78;1.73;;;;;;;12.49;57.30;99752.31;4954075;28;108792;-75
2023/12/31 05:25:27;;;;;;;2.60;1.50;;;;;;;12.50;57.37;99752.22;4946213;28;124485;-75
2023/12/31 05:27:54;;;;;;;2.47;1.60;;;;;;;12.50;57.50;99746.91;4950830;28;125094;-75
2023/12/31 05:30:23;;;;;;;4.32;1.70;;;;;;;12.52;57.39;99746.78;4938267;28;108588;-75
2023/12/31 05:32:50;;;;;;;3.10;1.48;;;;;;;12.52;57.48;99737.00;4943302;28;108929;-75
2023/12/31 05:35:19;;;;;;;4.80;1.83;;;;;;;12.54;57.27;99728.94;4945903;28;123511;-75
2023/12/31 05:37:46;;;;;;;2.30;1.40;;;;;;;12.53;57.46;99722.78;4943720;28;123917;-75
2023/12/31 05:40:13;;;;;;;6.20;1.80;;;;;;;12.53;57.47;99712.16;4944062;28;110125;-75
2023/12/31 05:42:41;;;;;;;3.33;1.60;;;;;;;12.52;57.42;99710.44;4949635;28;110004;-76
2023/12/31 05:45:08;;;;;;;3.58;1.73;;;;;;;12.54;57.42;99708.53;4942854;28;125071;-75
2023/12/31 05:47:36;;;;;;;2.92;1.80;;;;;;;12.53;57.58;99706.00;4951019;28;123796;-76
2023/12/31 05:50:14;;;;;;;3.15;1.75;;;;;;;12.54;57.59;99703.22;4951311;28;108998;-75
2023/12/31 05:52:42;;;;;;;3.45;1.63;;;;;;;12.55;57.46;99699.63;4958291;28;108738;-76
2023/12/31 05:55:09;;;;;;;3.30;2.00;;;;;;;12.57;57.69;99686.22;4946680;28;123910;-76
2023/12/31 05:57:39;;;;;;;3.05;1.95;;;;;;;12.57;57.75;99680.91;4943564;28;124167;-76
2023/12/31 06:00:07;;;;;;;4.20;1.63;;;;;;;12.58;57.60;99693.22;4946288;28;109648;-74
2023/12/31 06:02:42;;;;;;;2.90;1.98;;;;;;;12.58;57.81;99678.16;4946171;28;109574;-74
2023/12/31 06:05:09;;;;;;;5.68;1.90;;;;;;;12.59;57.67;99673.69;4935310;28;124400;-73
2023/12/31 06:07:38;;;;;;;3.58;1.88;;;;;;;12.59;57.56;99674.53;4947467;28;124162;-73
2023/12/31 06:10:05;;;;;;;2.72;1.90;;;;;;;12.60;57.68;99681.56;4955563;28;108779;-74
2023/12/31 06:12:34;;;;;;;4.28;2.08;;;;;;;12.60;57.79;99665.63;4951609;28;109026;-73
2023/12/31 06:15:06;;;;;;;2.70;1.90;;;;;;;12.60;57.85;99670.06;4946983;28;124095;-74
2023/12/31 06:17:42;;;;;;;4.07;2.15;;;;;;;12.61;57.67;99661.16;4939118;28;123964;-74
2023/12/31 06:20:26;;;;;;;3.75;2.30;;;;;;;12.60;57.94;99681.56;4952317;28;109202;-74
2023/12/31 06:22:54;;;;;;;3.90;2.20;;;;;;;12.61;57.82;99656.66;4949265;28;109591;-75
2023/12/31 06:25:27;;;;;;;4.03;2.33;;;;;;;12.62;57.79;99660.16;4948672;28;124096;-74
2023/12/31 06:27:56;;;;;;;4.43;2.03;;;;;;;12.62;57.76;99653.06;4938079;28;124267;-74
2023/12/31 06:30:32;;;;;;;3.45;2.10;;;;;;;12.63;57.77;99643.28;4953066;28;109565;-75
2023/12/31 06:32:59;;;;;;;;;;;;;;;12.62;57.91;99630.94;4947623;28;109673;-75
2023/12/31 06:35:26;;;;;;;2.90;2.20;;;;;;;12.63;57.82;99632.66;4953733;28;124146;-75
2023/12/31 06:37:53;;;;;;;3.75;2.22;;;;;;;12.62;57.71;99642.44;4947835;28;123369;-74
2023/12/31 06:40:24;;;;;;;4.35;2.35;;;;;;;12.61;57.68;99639.91;4946664;28;109119;-74
2023/12/31 06:42:51;;;;;;;2.72;2.15;;;;;;;12.60;57.85;99644.38;4952687;28;109193;-74
2023/12/31 06:45:19;;;;;;;4.60;2.05;;;;;;;12.61;57.75;99646.03;4940314;28;123777;-75
2023/12/31 06:47:47;;;;;;;3.75;2.13;;;;;;;12.60;57.70;99628.44;4944682;28;123077;-74
2023/12/31 06:50:15;;;;;;;2.97;2.05;;;;;;;12.59;57.72;99626.72;4957861;28;108976;-74
2023/12/31 06:52:43;;;;;;;5.05;2.25;;;;;;;12.58;57.89;99617.06;4952600;28;109111;-74
2023/12/31 06:55:12;;;;;;;3.72;2.30;;;;;;;12.57;57.76;99618.00;4954389;28;124342;-74
2023/12/31 06:57:40;;;;;;;4.30;2.00;;;;;;;12.55;57.74;99619.94;4943684;28;123705;-74
2023/12/31 07:00:08;;;;;;;3.13;2.25;;;;;;;12.54;57.82;99607.59;4954161;28;108599;-74
2023/12/31 07:02:37;;;;;;;3.42;2.40;;;;;;;12.53;57.77;99595.31;4955516;28;109344;-74
2023/12/31 07:05:08;;;;;;;3.00;2.30;;;;;;;12.51;57.97;99591.91;4978065;28;123334;-74
2023/12/31 07:07:36;;;;;;;2.45;1.98;;;;;;;12.50;57.73;99579.59;4953105;28;124605;-74
2023/12/31 07:10:04;;;;;;;3.45;2.30;;;;;;;12.50;57.74;99590.19;4946947;28;109525;-75
2023/12/31 07:12:31;;;;;;;3.53;2.28;;;;;;;12.49;57.71;99582.34;4950554;28;109091;-74
2023/12/31 07:15:01;;;;;;;6.20;2.30;;;;;;;12.47;57.76;99579.81;4956078;28;123424;-74
2023/12/31 07:17:28;;;;;;;4.28;2.42;;;;;;;12.46;57.83;99578.13;4953919;28;124336;-74
2023/12/31 07:19:59;;;;;;;3.40;2.20;;;;;;;12.44;57.82;99575.56;4945270;28;110357;-74
2023/12/31 07:22:27;;;;;;;4.60;2.40;;;;;;;12.43;57.97;99578.34;4955522;28;109920;-74
2023/12/31 07:24:54;;;;;;;8.30;2.80;;;;;;;12.43;57.95;99567.72;4956662;28;124480;-74
2023/12/31 07:27:25;;;;;;;3.97;2.35;;;;;;;12.41;57.86;99569.63;4944868;28;123993;-74
2023/12/31 07:29:52;;;;;;;3.78;2.28;;;;;;;12.41;57.99;99561.66;4954665;28;109706;-75
2023/12/31 07:32:19;;;;;;;4.55;2.60;;;;;;;12.40;58.01;99562.66;4949076;28;108869;-73
2023/12/31 07:34:46;;;;;;;4.28;2.55;;;;;;;12.39;58.09;99561.78;4948653;28;124542;-76
2023/12/31 07:37:15;;;;;;;3.22;2.00;;;;;;;12.38;58.19;99560.09;4949512;28;123927;-76
2023/12/31 07:39:43;;;;;;;4.50;2.58;;;;;;;12.41;58.11;99553.69;4953205;28;109340;-75
2023/12/31 07:42:12;;;;;;;5.63;2.42;;;;;;;12.40;58.14;99552.03;4947184;28;109419;-77
2023/12/31 07:44:39;;;;;;;3.67;2.30;;;;;;;12.42;58.17;99550.09;4947703;28;123843;-75
2023/12/31 07:47:06;;;;;;;3.63;2.10;;;;;;;12.43;58.19;99546.47;4945286;28;124397;-75
2023/12/31 07:49:36;;;;;;;3.97;2.00;;;;;;;12.44;58.17;99548.19;4944518;28;108341;-75
2023/12/31 07:52:07;;;;;;;3.55;1.90;;;;;;;12.46;58.22;99549.75;4950725;28;109631;-75
2023/12/31 07:54:36;;;;;;;3.80;1.65;;;;;;;12.47;58.31;99545.31;4946515;28;124866;-75
2023/12/31 07:57:04;;;;;;;5.57;1.95;;;;;;;12.48;58.22;99533.72;4952019;28;124664;-75
2023/12/31 07:59:35;;;;;;;3.25;1.95;;;;;;;12.49;58.16;99524.78;4932234;28;109209;-75
2023/12/31 08:02:03;;;;;;;3.58;2.08;;;;;;;12.51;58.22;99522.00;4946207;28;108093;-74
2023/12/31 08:04:31;;;;;;;4.97;2.13;;;;;;;12.51;58.20;99528.19;4946110;28;123959;-75
2023/12/31 08:06:58;;;;;;;4.70;2.10;;;;;;;12.52;58.26;99519.22;4939645;28;124254;-75
2023/12/31 08:09:26;;;;;;;3.47;2.10;;;;;;;12.54;58.25;99522.63;4947154;28;109747;-75
2023/12/31 08:11:53;;;;;;;4.07;2.10;;;;;;;12.55;58.24;99519.00;4935717;28;110341;-75
2023/12/31 08:14:21;;;;;;;4.03;2.10;;;;;;;12.56;58.24;99520.69;4945228;28;124531;-74
2023/12/31 08:16:48;;;;;;;5.80;2.30;;;;;;;12.59;58.24;99509.84;4945688;28;125040;-75
2023/12/31 08:19:21;;;;;;;3.72;1.75;;;;;;;12.59;58.30;99504.53;4944849;28;109432;-74
2023/12/31 08:21:48;;;;;;;3.55;2.22;;;;;;;12.61;58.35;99502.59;4946783;28;108466;-73
2023/12/31 08:24:20;;;;;;;4.30;2.40;;;;;;;12.63;58.35;99497.19;4946069;28;124678;-73
2023/12/31 08:26:52;;;;;;;3.90;2.15;;;;;;;12.65;58.29;99498.75;4937279;28;124574;-74
2023/12/31 08:29:19;;;;;;;3.35;2.00;;;;;;;12.68;58.47;99503.00;4943396;28;110009;-75
2023/12/31 08:31:52;;;;;;;6.18;2.50;;;;;;;12.71;58.22;99507.22;4944096;28;109435;-75
2023/12/31 08:34:20;;;;;;;4.78;2.28;;;;;;;12.72;58.29;99498.31;4945865;28;124420;-75
2023/12/31 08:36:47;;;;;;;4.85;2.50;;;;;;;12.75;58.36;99503.38;4943633;28;124105;-74
2023/12/31 08:39:15;;;;;;;5.47;2.20;;;;;;;12.76;58.38;99494.47;4954131;28;108956;-76
2023/12/31 08:41:44;;;;;;;4.18;2.42;;;;;;;12.76;58.58;99494.47;4937223;28;108545;-74
2023/12/31 08:44:11;;;;;;;5.03;2.50;;;;;;;12.78;58.64;99489.88;4944636;28;124475;-74
2023/12/31 08:46:40;;;;;;;4.57;2.33;;;;;;;12.80;58.61;99493.25;4950649;28;124363;-75
2023/12/31 08:49:07;;;;;;;3.53;2.35;;;;;;;12.82;58.60;99493.97;4950336;28;108385;-74
2023/12/31 08:51:35;;;;;;;3.80;2.42;;;;;;;12.84;58.56;99494.72;4952868;28;109070;-74
2023/12/31 08:54:03;;;;;;;3.85;2.25;;;;;;;12.85;58.69;99483.13;4953180;28;124720;-74
2023/12/31 08:56:31;;;;;;;3.55;2.05;;;;;;;12.88;58.65;99493.50;4956149;28;123299;-74
2023/12/31 08:58:58;;;;;;;3.80;2.30;;;;;;;12.90;58.77;99486.25;4951337;28;109755;-74
2023/12/31 09:01:26;;;;;;;4.30;2.35;;;;;;;12.92;58.76;99495.00;4932577;28;110377;-74
2023/12/31 09:03:53;;;;;;;4.22;2.40;;;;;;;12.97;58.81;99486.66;4935319;28;123884;-74
2023/12/31 09:06:21;;;;;;;4.43;2.50;;;;;;;13.00;58.76;99489.94;4952405;28;123324;-74
2023/12/31 09:08:48;;;;;;;3.20;2.15;;;;;;;13.04;58.90;99483.41;4941596;28;109407;-74
2023/12/31 09:11:22;;;;;;;3.63;1.92;;;;;;;13.09;59.19;99479.53;4938511;28;108553;-74
2023/12/31 09:13:49;;;;;;;3.30;2.20;;;;;;;13.14;58.94;99477.38;4951599;28;123942;-73
2023/12/31 09:16:28;;;;;;;4.03;2.20;;;;;;;13.18;59.07;99474.34;4946740;28;123792;-74
2023/12/31 09:18:55;;;;;;;3.58;1.75;;;;;;;13.23;58.87;99476.66;4948250;28;109416;-74
2023/12/31 09:21:22;;;;;;;3.50;1.70;;;;;;;13.27;59.04;99483.44;4940920;28;109513;-74
2023/12/31 09:23:50;;;;;;;3.45;1.88;;;;;;;13.31;59.06;99495.53;4942278;28;123246;-75
2023/12/31 09:26:18;;;;;;;3.88;1.80;;;;;;;13.34;58.91;99497.97;4960894;28;123953;-74
2023/12/31 09:28:47;;;;;;;2.38;1.52;;;;;;;13.37;59.11;99492.44;4954042;28;108613;-74
2023/12/31 09:31:14;;;;;;;3.67;1.80;;;;;;;13.39;58.94;99503.78;4952417;28;109271;-75
2023/12/31 09:33:42;;;;;;;3.92;1.67;;;;;;;13.42;59.00;99508.84;4940536;28;123827;-74
2023/12/31 09:36:09;;;;;;;3.20;1.73;;;;;;;13.44;58.90;99522.03;4943070;28;123917;-74
2023/12/31 09:38:43;;;;;;;2.92;1.70;;;;;;;13.46;58.96;99503.31;4939992;28;109070;-74
2023/12/31 09:41:20;;;;;;;3.25;1.70;;;;;;;13.45;58.96;99507.78;4953238;28;109096;-74
2023/12/31 09:43:51;;;;;;;3.22;1.50;;;;;;;13.47;58.97;99515.63;4949388;28;124086;-74
2023/12/31 09:46:22;;;;;;;2.50;1.55;;;;;;;13.47;59.02;99536.88;4948426;28;124060;-75
2023/12/31 09:48:50;;;;;;;2.33;1.23;;;;;;;13.46;59.05;99529.91;4957525;28;110567;-74
2023/12/31 09:51:18;;;;;;;2.28;1.23;;;;;;;13.46;59.06;99527.22;4945548;28;110553;-73
2023/12/31 09:53:46;;;;;;;2.22;1.20;;;;;;;13.47;59.07;99520.94;4945652;28;125799;-74
2023/12/31 09:56:16;;;;;;;3.38;1.45;;;;;;;13.47;58.71;99531.56;4963616;28;123149;-74
2023/12/31 09:58:45;;;;;;;3.33;1.40;;;;;;;13.47;59.05;99520.94;4956812;28;108862;-74
2023/12/31 10:01:28;;;;;;;4.55;1.50;;;;;;;13.48;59.11;99525.31;4933714;28;109284;-73
2023/12/31 10:04:07;;;;;;;2.17;1.38;;;;;;;13.47;59.18;99529.78;4941643;28;124812;-74
2023/12/31 10:06:39;;;;;;;2.92;1.23;;;;;;;13.47;58.96;99526.25;4945637;28;124529;-74
2023/12/31 10:09:09;;;;;;;2.17;1.30;;;;;;;13.47;59.13;99536.88;4946653;28;109774;-74
2023/12/31 10:11:38;;;;;;;3.25;1.30;;;;;;;13.47;59.09;99526.25;4943996;28;108476;-73
2023/12/31 10:14:15;;;;;;;2.22;1.13;;;;;;;13.46;59.16;99519.25;4941510;28;123733;-74
2023/12/31 10:16:45;;;;;;;2.45;1.17;;;;;;;13.47;59.19;99521.81;4939662;28;125169;-74
2023/12/31 10:19:19;;;;;;;2.10;1.25;;;;;;;13.47;59.10;99516.47;4949829;28;108750;-74
2023/12/31 10:21:47;;;;;;;2.90;1.20;;;;;;;13.48;59.05;99512.00;4950131;28;108360;-74
2023/12/31 10:24:15;;;;;;;1.90;1.10;;;;;;;13.48;59.03;99510.19;4959920;28;124404;-74
2023/12/31 10:26:44;;;;;;;2.42;0.90;;;;;;;13.49;59.03;99513.72;4939955;28;123972;-74
2023/12/31 10:29:11;;;;;;;2.92;1.10;;;;;;;13.50;59.11;99512.72;4936577;28;109446;-74
2023/12/31 10:31:47;;;;;;;1.60;1.02;;;;;;;13.50;59.12;99512.72;4956008;28;109128;-73
2023/12/31 10:34:16;;;;;;;1.85;1.08;;;;;;;13.49;59.04;99513.72;4953058;28;124151;-74
2023/12/31 10:36:45;;;;;;;2.72;1.02;;;;;;;13.52;58.96;99518.75;4952315;28;123558;-74
2023/12/31 10:39:29;;;;;;;2.00;0.98;;;;;;;13.50;59.02;99520.69;4935247;28;110126;-74
2023/12/31 10:42:13;;;;;;;1.48;0.80;;;;;;;13.49;58.84;99519.03;4945554;28;109680;-74
2023/12/31 10:44:42;;;;;;;2.13;0.80;;;;;;;13.46;59.05;99513.94;4955026;28;124092;-74
2023/12/31 10:47:09;;;;;;;2.42;0.90;;;;;;;13.42;58.97;99508.84;4944418;28;123866;-75
2023/12/31 10:49:43;;;;;;;1.50;0.80;;;;;;;13.38;59.15;99512.72;4949602;28;108986;-75
2023/12/31 10:52:14;;;;;;;1.70;0.82;;;;;;;13.38;59.00;99517.19;4957307;28;107961;-74
2023/12/31 10:54:45;;;;;;;1.05;0.65;;;;;;;13.34;58.94;99508.63;4949002;28;124525;-75
2023/12/31 10:57:14;;;;;;;1.33;0.50;;;;;;;13.31;59.06;99511.50;4953970;28;123294;-74
2023/12/31 10:59:43;;;;;;;1.25;0.50;;;;;;;13.28;58.94;99509.06;4946571;28;109742;-74
2023/12/31 11:02:15;;;;;;;6.13;4.15;;;;;;;13.27;59.00;99507.34;4947855;28;109112;-74
2023/12/31 11:04:45;;;;;;;2.95;1.10;;;;;;;13.24;58.96;99507.59;4962154;28;123129;-73
2023/12/31 11:07:20;;;;;;;1.40;0.52;;;;;;;13.22;59.03;99497.09;4943944;28;124025;-73
2023/12/31 11:09:50;;;;;;;5.45;1.13;;;;;;;13.20;59.08;99508.78;4952573;28;109446;-74
2023/12/31 11:12:19;;;;;;;0.80;0.57;;;;;;;13.17;59.03;99515.22;4954814;28;108790;-74
2023/12/31 11:14:53;;;;;;;0.77;0.60;;;;;;;13.17;59.20;99509.06;4945572;28;124182;-74
2023/12/31 11:17:29;;;;;;;1.05;0.70;;;;;;;13.18;59.25;99510.72;4960856;28;123916;-74
2023/12/31 11:20:31;;;;;;;2.03;0.60;;;;;;;13.18;59.30;99510.72;4950467;28;109416;-73
2023/12/31 11:23:17;;;;;;;2.05;0.50;;;;;;;13.17;59.29;99509.06;4973531;28;109428;-74
2023/12/31 11:25:46;;;;;;;0.93;0.50;;;;;;;13.15;59.16;99510.97;4948409;28;124521;-74
2023/12/31 11:28:13;;;;;;;2.45;0.90;;;;;;;13.15;59.39;99510.97;4942608;28;124175;-73
2023/12/31 11:30:52;;;;;;;1.67;0.70;;;;;;;13.16;59.46;99507.34;4947029;28;110458;-74